Time;durP1;ratioP1;P1;durP2;ratioP2;P2;SDS_P1;SDS_P2;PMS_P1;PMS_P2;Temp;Humidity;BMP_temperature;BMP_pressure;BME280_temperature;BME280_humidity;BME280_pressure;Samples;Min_cycle;Max_cycle;Signal;HPM_P1;HPM_P2
2021/06/03 00:00:34;;;;;;;8.00;6.55;;;;;;;;;;5094809;28;20477;-66
2021/06/03 00:03:00;;;;;;;10.88;6.10;;;;;;;;;;5094730;28;20028;-66
2021/06/03 00:05:27;;;;;;;6.47;5.03;;;;;;;;;;5094619;28;20028;-66
2021/06/03 00:07:53;;;;;;;5.55;5.05;;;;;;;;;;5094569;28;20115;-67
2021/06/03 00:10:23;;;;;;;6.57;4.35;;;;;;;;;;5094649;28;20127;-66
2021/06/03 00:12:49;;;;;;;5.68;4.50;;;;;;;;;;5076355;28;20082;-66
2021/06/03 00:15:14;;;;;;;6.55;4.97;;;;;;;;;;5094421;28;20106;-66
2021/06/03 00:17:40;;;;;;;5.03;4.53;;;;;;;;;;5094412;28;20028;-66
2021/06/03 00:20:11;;;;;;;5.32;4.82;;;;;;;;;;5094141;28;20012;-66
2021/06/03 00:22:36;;;;;;;5.70;4.65;;;;;;;;;;5093734;28;20059;-66
2021/06/03 00:25:03;;;;;;;6.70;4.93;;;;;;;;;;5094287;28;20049;-66
2021/06/03 00:27:28;;;;;;;6.93;4.60;;;;;;;;;;5075836;28;20397;-66
2021/06/03 00:29:54;;;;;;;5.70;5.03;;;;;;;;;;5075946;28;20099;-66
2021/06/03 00:32:19;;;;;;;5.47;4.90;;;;;;;;;;5093917;28;20477;-66
2021/06/03 00:34:45;;;;;;;6.20;4.85;;;;;;;;;;5094108;28;20103;-66
2021/06/03 00:37:10;;;;;;;5.13;4.70;;;;;;;;;;5075796;28;20111;-66
2021/06/03 00:39:35;;;;;;;6.13;4.78;;;;;;;;;;5093923;28;20113;-66
2021/06/03 00:42:01;;;;;;;4.93;4.38;;;;;;;;;;5093661;28;20040;-66
2021/06/03 00:44:26;;;;;;;5.65;4.78;;;;;;;;;;5094276;28;20036;-66
2021/06/03 00:46:52;;;;;;;6.90;4.75;;;;;;;;;;5093920;28;20028;-66
2021/06/03 00:49:17;;;;;;;6.82;4.85;;;;;;;;;;5075653;28;20020;-66
2021/06/03 00:51:43;;;;;;;6.53;4.97;;;;;;;;;;5093646;28;20397;-66
2021/06/03 00:54:09;;;;;;;7.20;4.68;;;;;;;;;;5075526;28;20031;-66
2021/06/03 00:56:37;;;;;;;5.85;5.00;;;;;;;;;;5075410;28;20020;-66
2021/06/03 00:59:04;;;;;;;7.47;4.70;;;;;;;;;;5075588;28;20078;-66
2021/06/03 01:01:31;;;;;;;9.25;4.50;;;;;;;;;;5075533;28;20059;-66
2021/06/03 01:03:59;;;;;;;5.05;4.55;;;;;;;;;;5075468;28;20031;-66
2021/06/03 01:06:25;;;;;;;5.32;4.70;;;;;;;;;;5093456;28;20090;-66
2021/06/03 01:09:08;;;;;;;4.85;4.38;;;;;;;;;;5075242;28;20016;-66
2021/06/03 01:11:34;;;;;;;6.28;4.43;;;;;;;;;;5075508;28;20035;-66
2021/06/03 01:14:00;;;;;;;5.85;4.60;;;;;;;;;;5075325;28;20020;-66
2021/06/03 01:16:28;;;;;;;8.40;4.90;;;;;;;;;;5075327;28;20079;-66
2021/06/03 01:18:55;;;;;;;5.38;4.88;;;;;;;;;;5093303;28;20020;-66
2021/06/03 01:21:23;;;;;;;5.50;4.57;;;;;;;;;;5074875;28;20052;-66
2021/06/03 01:24:08;;;;;;;6.18;4.68;;;;;;;;;;5075476;28;20035;-66
2021/06/03 01:26:33;;;;;;;4.88;4.38;;;;;;;;;;5075276;28;20545;-66
2021/06/03 01:29:00;;;;;;;5.47;4.60;;;;;;;;;;5075249;28;20111;-66
2021/06/03 01:31:26;;;;;;;6.05;4.80;;;;;;;;;;5074960;28;20486;-66
2021/06/03 01:33:52;;;;;;;6.20;4.47;;;;;;;;;;5093017;28;20027;-66
2021/06/03 01:36:17;;;;;;;4.82;4.10;;;;;;;;;;5093103;28;20398;-66
2021/06/03 01:38:43;;;;;;;6.28;4.28;;;;;;;;;;5093053;28;20017;-66
2021/06/03 01:41:10;;;;;;;5.50;4.38;;;;;;;;;;5093144;28;20035;-66
2021/06/03 01:43:40;;;;;;;4.82;4.38;;;;;;;;;;5091760;28;20051;-66
2021/06/03 01:46:06;;;;;;;5.85;4.60;;;;;;;;;;5093165;28;20367;-66
2021/06/03 01:48:32;;;;;;;7.03;4.45;;;;;;;;;;5075054;28;20497;-66
2021/06/03 01:51:00;;;;;;;5.03;4.53;;;;;;;;;;5074965;28;20028;-66
2021/06/03 01:53:28;;;;;;;5.10;4.60;;;;;;;;;;5092916;28;20374;-66
2021/06/03 01:56:00;;;;;;;8.60;4.75;;;;;;;;;;5074858;28;20063;-65
2021/06/03 01:58:26;;;;;;;6.70;4.50;;;;;;;;;;5074876;28;20030;-66
2021/06/03 02:00:53;;;;;;;4.90;4.35;;;;;;;;;;5092887;28;20106;-66
2021/06/03 02:03:22;;;;;;;6.60;4.13;;;;;;;;;;5074946;28;20111;-66
2021/06/03 02:05:48;;;;;;;4.55;4.10;;;;;;;;;;5074820;28;20389;-66
2021/06/03 02:08:14;;;;;;;6.10;4.43;;;;;;;;;;5093030;28;20020;-66
2021/06/03 02:10:55;;;;;;;4.50;4.18;;;;;;;;;;5092924;28;20020;-66
2021/06/03 02:13:38;;;;;;;5.60;4.18;;;;;;;;;;5092777;28;20071;-66
2021/06/03 02:16:11;;;;;;;5.13;4.53;;;;;;;;;;5074419;28;20548;-66
2021/06/03 02:18:43;;;;;;;5.68;4.10;;;;;;;;;;5093018;28;20043;-66
2021/06/03 02:21:10;;;;;;;5.60;4.60;;;;;;;;;;5074699;28;20028;-66
2021/06/03 02:23:36;;;;;;;5.07;4.28;;;;;;;;;;5074642;28;20024;-65
2021/06/03 02:26:04;;;;;;;4.85;4.15;;;;;;;;;;5074729;28;20485;-66
2021/06/03 02:28:34;;;;;;;5.25;4.10;;;;;;;;;;5074833;28;20031;-66
2021/06/03 02:31:00;;;;;;;5.88;4.30;;;;;;;;;;5074466;28;20441;-66
2021/06/03 02:33:29;;;;;;;6.55;4.32;;;;;;;;;;5092495;28;20016;-66
2021/06/03 02:35:55;;;;;;;5.85;4.57;;;;;;;;;;5074597;28;20024;-66
2021/06/03 02:38:31;;;;;;;6.20;4.07;;;;;;;;;;5092663;28;20374;-66
2021/06/03 02:41:01;;;;;;;7.63;4.40;;;;;;;;;;5092616;28;20028;-66
2021/06/03 02:43:28;;;;;;;5.45;4.05;;;;;;;;;;5074091;28;20079;-66
2021/06/03 02:45:54;;;;;;;5.10;4.38;;;;;;;;;;5077746;28;20024;-66
2021/06/03 02:48:20;;;;;;;7.30;4.50;;;;;;;;;;5078065;28;20196;-66
2021/06/03 02:50:46;;;;;;;5.22;3.78;;;;;;;;;;5077901;28;20114;-66
2021/06/03 02:53:12;;;;;;;5.82;4.38;;;;;;;;;;5095925;28;20016;-65
2021/06/03 02:55:40;;;;;;;4.85;4.30;;;;;;;;;;5096029;28;20032;-66
2021/06/03 02:58:07;;;;;;;4.72;4.03;;;;;;;;;;5096137;28;20012;-65
2021/06/03 03:00:36;;;;;;;4.38;3.80;;;;;;;;;;5077874;28;20379;-65
2021/06/03 03:03:06;;;;;;;6.00;4.03;;;;;;;;;;5077743;28;20028;-65
2021/06/03 03:05:35;;;;;;;5.30;4.22;;;;;;;;;;5077809;28;20036;-65
2021/06/03 03:08:01;;;;;;;6.75;4.07;;;;;;;;;;5077612;28;20496;-65
2021/06/03 03:10:28;;;;;;;4.22;3.83;;;;;;;;;;5095865;28;20032;-66
2021/06/03 03:12:55;;;;;;;4.78;4.10;;;;;;;;;;5077148;28;20016;-66
2021/06/03 03:15:21;;;;;;;6.72;4.22;;;;;;;;;;5077400;28;20043;-66
2021/06/03 03:17:48;;;;;;;4.72;4.32;;;;;;;;;;5094239;28;20530;-65
2021/06/03 03:20:14;;;;;;;6.15;4.18;;;;;;;;;;5095428;28;20111;-66
2021/06/03 03:22:41;;;;;;;5.60;3.97;;;;;;;;;;5095493;28;20035;-65
2021/06/03 03:25:09;;;;;;;5.60;4.00;;;;;;;;;;5077237;28;20024;-65
2021/06/03 03:27:36;;;;;;;4.65;3.60;;;;;;;;;;5077344;28;20463;-65
2021/06/03 03:30:03;;;;;;;4.07;3.70;;;;;;;;;;5095270;28;20101;-65
2021/06/03 03:32:30;;;;;;;3.42;3.22;;;;;;;;;;5077014;28;20492;-65
2021/06/03 03:34:56;;;;;;;5.35;3.63;;;;;;;;;;5094005;28;20051;-65
2021/06/03 03:37:23;;;;;;;4.20;3.80;;;;;;;;;;5077089;28;20034;-65
2021/06/03 03:39:50;;;;;;;3.88;3.58;;;;;;;;;;5076937;28;20390;-65
2021/06/03 03:42:15;;;;;;;3.33;3.08;;;;;;;;;;5094686;28;20052;-65
2021/06/03 03:44:41;;;;;;;3.75;3.30;;;;;;;;;;5095447;28;20111;-65
2021/06/03 03:47:07;;;;;;;3.95;3.55;;;;;;;;;;5076820;28;20079;-65
2021/06/03 03:49:34;;;;;;;4.25;3.25;;;;;;;;;;5060184;28;20119;-65
2021/06/03 03:52:00;;;;;;;5.15;3.25;;;;;;;;;;5094788;28;20107;-65
2021/06/03 03:54:27;;;;;;;4.38;3.90;;;;;;;;;;5093626;28;20565;-65
2021/06/03 03:56:52;;;;;;;4.10;3.70;;;;;;;;;;5094712;28;20036;-65
2021/06/03 03:59:18;;;;;;;3.70;3.40;;;;;;;;;;5094725;28;20043;-65
2021/06/03 04:01:45;;;;;;;3.30;3.00;;;;;;;;;;5094610;28;20023;-66
2021/06/03 04:04:11;;;;;;;3.47;3.20;;;;;;;;;;5076522;28;20039;-65
2021/06/03 04:06:39;;;;;;;3.88;3.00;;;;;;;;;;5076467;28;20020;-65
2021/06/03 04:09:06;;;;;;;3.60;3.30;;;;;;;;;;5076046;28;20031;-65
2021/06/03 04:11:33;;;;;;;3.35;3.05;;;;;;;;;;5094455;28;20443;-65
2021/06/03 04:13:59;;;;;;;4.18;2.85;;;;;;;;;;5094381;28;20386;-65
2021/06/03 04:16:25;;;;;;;3.50;3.17;;;;;;;;;;5094401;28;20024;-65
2021/06/03 04:18:50;;;;;;;3.13;2.80;;;;;;;;;;5059494;28;20032;-65
2021/06/03 04:21:16;;;;;;;3.58;3.00;;;;;;;;;;5076177;28;20121;-65
2021/06/03 04:23:42;;;;;;;3.63;3.20;;;;;;;;;;5094442;28;20016;-65
2021/06/03 04:26:07;;;;;;;3.72;3.13;;;;;;;;;;5076250;28;20019;-65
2021/06/03 04:28:33;;;;;;;3.70;3.30;;;;;;;;;;5094339;28;20098;-65
2021/06/03 04:30:58;;;;;;;3.83;3.40;;;;;;;;;;5094058;28;20481;-65
2021/06/03 04:33:23;;;;;;;3.50;3.20;;;;;;;;;;5075870;28;20039;-65
2021/06/03 04:35:50;;;;;;;4.97;3.08;;;;;;;;;;5094169;28;20024;-65
2021/06/03 04:38:15;;;;;;;2.78;2.58;;;;;;;;;;5093905;28;20028;-65
2021/06/03 04:40:41;;;;;;;4.22;2.90;;;;;;;;;;5093900;28;20107;-65
2021/06/03 04:43:07;;;;;;;2.97;2.70;;;;;;;;;;5075508;28;20416;-65
2021/06/03 04:45:34;;;;;;;3.47;2.78;;;;;;;;;;5093790;28;20478;-65
2021/06/03 04:47:59;;;;;;;3.00;2.53;;;;;;;;;;5093906;28;20390;-65
2021/06/03 04:50:25;;;;;;;2.95;2.60;;;;;;;;;;5093764;28;20020;-65
2021/06/03 04:52:51;;;;;;;3.97;3.08;;;;;;;;;;5093622;28;20032;-65
2021/06/03 04:55:20;;;;;;;4.22;2.58;;;;;;;;;;5092402;28;20374;-65
2021/06/03 04:57:46;;;;;;;5.55;2.55;;;;;;;;;;5075719;28;20028;-65
2021/06/03 05:00:13;;;;;;;2.85;2.65;;;;;;;;;;5093585;28;20024;-65
2021/06/03 05:02:39;;;;;;;2.85;2.65;;;;;;;;;;5093698;28;20032;-65
2021/06/03 05:05:05;;;;;;;2.88;2.67;;;;;;;;;;5093256;28;20527;-65
2021/06/03 05:07:31;;;;;;;2.50;2.30;;;;;;;;;;5093116;28;20596;-65
2021/06/03 05:09:56;;;;;;;4.25;2.53;;;;;;;;;;5093554;28;20024;-65
2021/06/03 05:12:23;;;;;;;2.60;2.40;;;;;;;;;;5093531;28;20113;-65
2021/06/03 05:14:48;;;;;;;5.65;2.25;;;;;;;;;;5093484;28;20020;-65
2021/06/03 05:17:14;;;;;;;3.55;2.20;;;;;;;;;;5075274;28;20051;-65
2021/06/03 05:19:39;;;;;;;2.30;2.10;;;;;;;;;;5093326;28;20016;-65
2021/06/03 05:22:05;;;;;;;2.63;2.28;;;;;;;;;;5093280;28;20028;-65
2021/06/03 05:24:32;;;;;;;2.25;2.15;;;;;;;;;;5075330;28;20032;-65
2021/06/03 05:26:58;;;;;;;2.47;1.75;;;;;;;;;;5093279;28;20093;-65
2021/06/03 05:29:24;;;;;;;2.28;1.98;;;;;;;;;;5093273;28;20013;-65
2021/06/03 05:31:52;;;;;;;2.10;1.90;;;;;;;;;;5093061;28;20498;-65
2021/06/03 05:34:17;;;;;;;2.13;1.90;;;;;;;;;;5093152;28;20476;-65
2021/06/03 05:36:43;;;;;;;1.70;1.60;;;;;;;;;;5093165;28;20024;-65
2021/06/03 05:39:08;;;;;;;1.42;1.33;;;;;;;;;;5093106;28;20016;-65
2021/06/03 05:41:36;;;;;;;1.80;1.70;;;;;;;;;;5093094;28;20078;-65
2021/06/03 05:44:02;;;;;;;2.13;1.75;;;;;;;;;;5093129;28;20579;-65
2021/06/03 05:46:28;;;;;;;2.20;2.00;;;;;;;;;;5093051;28;20135;-65
2021/06/03 05:48:53;;;;;;;3.15;1.95;;;;;;;;;;5091825;28;20044;-65
2021/06/03 05:51:19;;;;;;;1.73;1.63;;;;;;;;;;5092985;28;20055;-65
2021/06/03 05:53:45;;;;;;;1.83;1.73;;;;;;;;;;5092952;28;20454;-65
2021/06/03 05:56:11;;;;;;;3.50;1.90;;;;;;;;;;5093106;28;20412;-65
2021/06/03 05:58:37;;;;;;;1.70;1.60;;;;;;;;;;5092747;28;20460;-65
2021/06/03 06:01:02;;;;;;;1.98;1.58;;;;;;;;;;5074932;28;20106;-65
2021/06/03 06:03:36;;;;;;;3.83;1.60;;;;;;;;;;5092960;28;20020;-65
2021/06/03 06:08:43;;;;;;;2.00;1.88;;;;;;;;;;5093033;28;20521;-65
2021/06/03 06:11:08;;;;;;;2.40;2.17;;;;;;;;;;5092931;28;20016;-65
2021/06/03 06:13:35;;;;;;;3.55;1.77;;;;;;;;;;5092855;28;20496;-65
2021/06/03 06:16:00;;;;;;;4.28;1.75;;;;;;;;;;5092806;28;20462;-65
2021/06/03 06:18:26;;;;;;;2.40;2.20;;;;;;;;;;5092840;28;20024;-65
2021/06/03 06:20:52;;;;;;;4.28;1.80;;;;;;;;;;5096210;28;20012;-65
2021/06/03 06:23:18;;;;;;;2.60;2.00;;;;;;;;;;5096652;28;20024;-65
2021/06/03 06:25:44;;;;;;;1.92;1.83;;;;;;;;;;5096567;28;20027;-65
2021/06/03 06:28:10;;;;;;;2.22;2.03;;;;;;;;;;5096593;28;20036;-65
2021/06/03 06:30:35;;;;;;;5.20;2.38;;;;;;;;;;5096657;28;20024;-65
2021/06/03 06:33:01;;;;;;;3.28;1.70;;;;;;;;;;5096424;28;20119;-65
2021/06/03 06:35:27;;;;;;;2.55;2.30;;;;;;;;;;5096532;28;20066;-65
2021/06/03 06:37:53;;;;;;;2.35;1.80;;;;;;;;;;5096390;28;20032;-65
2021/06/03 06:40:18;;;;;;;2.45;1.73;;;;;;;;;;5096419;28;20024;-65
2021/06/03 06:42:45;;;;;;;3.08;2.10;;;;;;;;;;5095944;28;20044;-65
2021/06/03 06:45:11;;;;;;;3.53;2.55;;;;;;;;;;5096313;28;20036;-65
2021/06/03 06:47:37;;;;;;;2.08;1.88;;;;;;;;;;5096279;28;20031;-65
2021/06/03 06:50:07;;;;;;;2.20;2.00;;;;;;;;;;5096286;28;20012;-65
2021/06/03 06:52:33;;;;;;;2.35;2.15;;;;;;;;;;5095974;28;20035;-65
2021/06/03 06:54:58;;;;;;;4.10;2.10;;;;;;;;;;5095581;28;20484;-65
2021/06/03 06:57:24;;;;;;;5.25;2.28;;;;;;;;;;5095918;28;20032;-65
2021/06/03 06:59:49;;;;;;;2.88;2.17;;;;;;;;;;5095979;28;20106;-65
2021/06/03 07:02:15;;;;;;;2.53;2.33;;;;;;;;;;5095857;28;20082;-65
2021/06/03 07:04:40;;;;;;;4.57;1.90;;;;;;;;;;5095740;28;20116;-65
2021/06/03 07:07:05;;;;;;;1.60;1.50;;;;;;;;;;5095811;28;20035;-65
2021/06/03 07:09:31;;;;;;;2.90;2.13;;;;;;;;;;5095880;28;20024;-65
2021/06/03 07:11:56;;;;;;;2.38;1.83;;;;;;;;;;5095732;28;20036;-65
2021/06/03 07:14:22;;;;;;;4.30;1.77;;;;;;;;;;5095706;28;20098;-65
2021/06/03 07:16:47;;;;;;;2.33;2.22;;;;;;;;;;5095702;28;20032;-65
2021/06/03 07:19:12;;;;;;;4.28;2.25;;;;;;;;;;5095579;28;20017;-65
2021/06/03 07:21:38;;;;;;;1.83;1.73;;;;;;;;;;5095634;28;20056;-65
2021/06/03 07:24:04;;;;;;;1.90;1.80;;;;;;;;;;5095607;28;20481;-65
2021/06/03 07:26:29;;;;;;;2.00;1.80;;;;;;;;;;5095428;28;20028;-65
2021/06/03 07:28:55;;;;;;;2.15;1.90;;;;;;;;;;5095362;28;20039;-65
2021/06/03 07:31:20;;;;;;;1.70;1.60;;;;;;;;;;5094965;28;20082;-65
2021/06/03 07:33:46;;;;;;;2.22;1.88;;;;;;;;;;5095319;28;20097;-65
2021/06/03 07:36:12;;;;;;;3.72;1.98;;;;;;;;;;5077090;28;20381;-65
2021/06/03 07:38:37;;;;;;;2.40;1.23;;;;;;;;;;5095264;28;20352;-65
2021/06/03 07:41:04;;;;;;;2.42;1.83;;;;;;;;;;5095170;28;20430;-65
2021/06/03 07:43:29;;;;;;;4.20;1.98;;;;;;;;;;5094966;28;20052;-65
2021/06/03 07:45:55;;;;;;;3.75;1.60;;;;;;;;;;5095002;28;20031;-65
2021/06/03 07:48:21;;;;;;;3.05;1.60;;;;;;;;;;5095030;28;20063;-65
2021/06/03 07:50:46;;;;;;;2.85;1.63;;;;;;;;;;5094893;28;20030;-65
2021/06/03 07:53:12;;;;;;;1.80;1.70;;;;;;;;;;5094963;28;20112;-65
2021/06/03 07:55:37;;;;;;;2.00;1.80;;;;;;;;;;5094793;28;20031;-65
2021/06/03 07:58:04;;;;;;;2.78;1.70;;;;;;;;;;5094786;28;20032;-65
2021/06/03 08:00:30;;;;;;;1.67;1.58;;;;;;;;;;5076527;28;20494;-65
2021/06/03 08:02:56;;;;;;;2.40;1.55;;;;;;;;;;5094751;28;20016;-65
2021/06/03 08:05:23;;;;;;;2.00;1.58;;;;;;;;;;5094659;28;20081;-65
2021/06/03 08:07:48;;;;;;;2.33;1.50;;;;;;;;;;5094735;28;20031;-65
2021/06/03 08:10:16;;;;;;;2.00;1.90;;;;;;;;;;5094689;28;20385;-65
2021/06/03 08:12:42;;;;;;;3.05;1.50;;;;;;;;;;5094403;28;20023;-65
2021/06/03 08:15:10;;;;;;;2.08;1.75;;;;;;;;;;5094511;28;20028;-65
2021/06/03 08:17:36;;;;;;;1.75;1.65;;;;;;;;;;5094527;28;20382;-65
2021/06/03 08:20:03;;;;;;;3.65;1.90;;;;;;;;;;5094311;28;20111;-65
2021/06/03 08:22:28;;;;;;;9.32;1.70;;;;;;;;;;5094403;28;20047;-65
2021/06/03 08:24:53;;;;;;;2.13;1.60;;;;;;;;;;5094324;28;20028;-65
2021/06/03 08:27:19;;;;;;;1.90;1.60;;;;;;;;;;5094157;28;20012;-65
2021/06/03 08:29:44;;;;;;;1.70;1.60;;;;;;;;;;5094151;28;20090;-66
2021/06/03 08:32:10;;;;;;;1.70;1.60;;;;;;;;;;5094083;28;20067;-65
2021/06/03 08:34:35;;;;;;;2.08;1.90;;;;;;;;;;5094159;28;20429;-65
2021/06/03 08:37:01;;;;;;;3.05;1.60;;;;;;;;;;5076004;28;20016;-65
2021/06/03 08:39:26;;;;;;;1.35;1.25;;;;;;;;;;5094014;28;20094;-65
2021/06/03 08:41:53;;;;;;;2.97;1.67;;;;;;;;;;5074827;28;20028;-65
2021/06/03 08:44:19;;;;;;;2.08;1.40;;;;;;;;;;5057388;28;20048;-65
2021/06/03 08:46:44;;;;;;;2.25;1.85;;;;;;;;;;5073450;28;20390;-65
2021/06/03 08:49:10;;;;;;;2.80;1.75;;;;;;;;;;5073680;28;20041;-65
2021/06/03 08:51:36;;;;;;;2.55;1.50;;;;;;;;;;5073482;28;20028;-65
2021/06/03 08:54:02;;;;;;;2.60;1.38;;;;;;;;;;5055700;28;20021;-65
2021/06/03 08:56:28;;;;;;;1.90;1.70;;;;;;;;;;5073557;28;20048;-65
2021/06/03 08:58:55;;;;;;;2.53;1.63;;;;;;;;;;5039000;28;20067;-65
2021/06/03 09:01:21;;;;;;;1.50;1.40;;;;;;;;;;5073286;28;20079;-65
2021/06/03 09:03:47;;;;;;;1.92;1.70;;;;;;;;;;5073450;28;20028;-65
2021/06/03 09:06:15;;;;;;;2.72;1.60;;;;;;;;;;5073414;28;20059;-65
2021/06/03 09:08:42;;;;;;;3.30;1.35;;;;;;;;;;5073390;28;20025;-65
2021/06/03 09:11:09;;;;;;;5.05;1.70;;;;;;;;;;5073264;28;20073;-65
2021/06/03 09:13:36;;;;;;;3.00;1.58;;;;;;;;;;5073182;28;20025;-65
2021/06/03 09:16:08;;;;;;;2.22;1.70;;;;;;;;;;5073290;28;20375;-65
2021/06/03 09:18:36;;;;;;;2.53;1.55;;;;;;;;;;5073148;28;20032;-65
2021/06/03 09:21:12;;;;;;;1.88;1.77;;;;;;;;;;5073224;28;20017;-65
2021/06/03 09:23:39;;;;;;;2.38;1.80;;;;;;;;;;5073084;28;20099;-65
2021/06/03 09:26:05;;;;;;;1.58;1.48;;;;;;;;;;5073169;28;20017;-65
2021/06/03 09:28:31;;;;;;;2.35;2.15;;;;;;;;;;5073227;28;20474;-65
2021/06/03 09:30:56;;;;;;;2.13;1.80;;;;;;;;;;5055277;28;20032;-65
2021/06/03 09:33:39;;;;;;;1.75;1.33;;;;;;;;;;5072968;28;20060;-65
2021/06/03 09:36:06;;;;;;;1.83;1.55;;;;;;;;;;5073101;28;20028;-65
2021/06/03 09:38:32;;;;;;;2.53;1.80;;;;;;;;;;5073040;28;20056;-65
2021/06/03 09:40:57;;;;;;;1.73;1.40;;;;;;;;;;5072572;28;20115;-65
2021/06/03 09:43:24;;;;;;;1.60;1.50;;;;;;;;;;5083409;28;20147;-65
2021/06/03 09:45:53;;;;;;;4.07;1.85;;;;;;;;;;5093100;28;20051;-65
2021/06/03 09:48:37;;;;;;;2.17;1.70;;;;;;;;;;5093113;28;20032;-65
2021/06/03 09:51:15;;;;;;;1.73;1.63;;;;;;;;;;5093040;28;20073;-65
2021/06/03 09:53:51;;;;;;;1.83;1.50;;;;;;;;;;5076711;28;20034;-65
2021/06/03 09:56:22;;;;;;;2.05;1.73;;;;;;;;;;5097291;28;20028;-65
2021/06/03 09:58:48;;;;;;;2.17;1.45;;;;;;;;;;5097418;28;20020;-65
2021/06/03 10:01:14;;;;;;;1.80;1.70;;;;;;;;;;5097094;28;20016;-65
2021/06/03 10:03:49;;;;;;;1.98;1.75;;;;;;;;;;5097130;28;20191;-65
2021/06/03 10:06:15;;;;;;;2.47;1.73;;;;;;;;;;5097042;28;20034;-65
2021/06/03 10:08:50;;;;;;;2.80;1.77;;;;;;;;;;5097003;28;20016;-65
2021/06/03 10:11:34;;;;;;;2.10;1.65;;;;;;;;;;5096971;28;20117;-65
2021/06/03 10:14:13;;;;;;;3.50;1.85;;;;;;;;;;5096864;28;20431;-65
2021/06/03 10:16:38;;;;;;;2.17;1.98;;;;;;;;;;5096754;28;20031;-65
2021/06/03 10:19:17;;;;;;;3.38;1.70;;;;;;;;;;5096679;28;20020;-65
2021/06/03 10:21:43;;;;;;;2.60;1.58;;;;;;;;;;5096660;28;20070;-65
2021/06/03 10:24:09;;;;;;;1.60;1.50;;;;;;;;;;5096655;28;20020;-65
2021/06/03 10:26:53;;;;;;;2.22;2.03;;;;;;;;;;5096793;28;20128;-65
2021/06/03 10:29:18;;;;;;;2.20;2.00;;;;;;;;;;5096647;28;20073;-65
2021/06/03 10:31:45;;;;;;;2.28;2.05;;;;;;;;;;5096429;28;20110;-65
2021/06/03 10:34:10;;;;;;;1.95;1.85;;;;;;;;;;5096461;28;20032;-65
2021/06/03 10:36:36;;;;;;;1.92;1.65;;;;;;;;;;5096058;28;20027;-65
2021/06/03 10:39:02;;;;;;;4.18;2.10;;;;;;;;;;5096372;28;20028;-65
2021/06/03 10:41:28;;;;;;;3.55;2.22;;;;;;;;;;5096307;28;20375;-65
2021/06/03 10:43:54;;;;;;;2.08;1.70;;;;;;;;;;5096052;28;20056;-65
2021/06/03 10:46:19;;;;;;;3.00;1.80;;;;;;;;;;5096232;28;20025;-65
2021/06/03 10:48:46;;;;;;;5.45;1.88;;;;;;;;;;5096176;28;20063;-65
2021/06/03 10:51:11;;;;;;;2.15;1.98;;;;;;;;;;5096083;28;20020;-65
2021/06/03 10:53:47;;;;;;;3.65;1.77;;;;;;;;;;5095988;28;20368;-65
2021/06/03 10:56:14;;;;;;;2.78;2.50;;;;;;;;;;5095978;28;20077;-65
2021/06/03 10:58:41;;;;;;;2.38;2.17;;;;;;;;;;5096059;28;20389;-65
2021/06/03 11:01:24;;;;;;;2.05;1.90;;;;;;;;;;5095843;28;20055;-65
2021/06/03 11:03:55;;;;;;;2.33;2.00;;;;;;;;;;5096050;28;20448;-65
2021/06/03 11:06:20;;;;;;;;;;;;;;;;;;5095498;28;20032;-65
2021/06/03 11:08:47;;;;;;;2.33;2.03;;;;;;;;;;5095865;28;20273;-65
2021/06/03 11:11:13;;;;;;;4.57;2.10;;;;;;;;;;5095748;28;20273;-65
2021/06/03 11:13:38;;;;;;;5.60;2.20;;;;;;;;;;5095728;28;20077;-65
2021/06/03 11:16:04;;;;;;;2.20;1.85;;;;;;;;;;5095760;28;20043;-65
2021/06/03 11:18:44;;;;;;;2.72;1.95;;;;;;;;;;5095546;28;20016;-65
2021/06/03 11:21:29;;;;;;;2.38;2.17;;;;;;;;;;5095575;28;20035;-65
2021/06/03 11:23:54;;;;;;;2.33;2.20;;;;;;;;;;5077382;28;20024;-65
2021/06/03 11:26:38;;;;;;;2.17;2.00;;;;;;;;;;5095504;28;20038;-65
2021/06/03 11:29:11;;;;;;;2.70;1.92;;;;;;;;;;5095530;28;20044;-65
2021/06/03 11:31:37;;;;;;;2.78;2.10;;;;;;;;;;5095183;28;20470;-65
2021/06/03 11:34:03;;;;;;;2.17;1.90;;;;;;;;;;5095280;28;20020;-65
2021/06/03 11:36:29;;;;;;;2.00;1.80;;;;;;;;;;5077212;28;20031;-65
2021/06/03 11:38:54;;;;;;;4.28;1.90;;;;;;;;;;5095303;28;20070;-65
2021/06/03 11:41:31;;;;;;;4.80;2.00;;;;;;;;;;5095106;28;20032;-65
2021/06/03 11:44:07;;;;;;;2.40;2.20;;;;;;;;;;5094960;28;20071;-65
2021/06/03 11:47:05;;;;;;;4.97;2.05;;;;;;;;;;5095090;28;20020;-65
2021/06/03 11:49:39;;;;;;;5.88;1.90;;;;;;;;;;5049979;28;20122;-65
2021/06/03 11:52:07;;;;;;;2.33;2.08;;;;;;;;;;5094850;28;20489;-65
2021/06/03 11:54:53;;;;;;;1.92;1.65;;;;;;;;;;5094967;28;20429;-65
2021/06/03 11:57:19;;;;;;;2.38;1.52;;;;;;;;;;5094446;28;20032;-65
2021/06/03 11:59:57;;;;;;;3.85;1.88;;;;;;;;;;5094899;28;20051;-65
2021/06/03 12:02:27;;;;;;;2.10;1.58;;;;;;;;;;5094687;28;20063;-65
2021/06/03 12:05:10;;;;;;;1.63;1.52;;;;;;;;;;5094746;28;20020;-65
2021/06/03 12:07:38;;;;;;;1.50;1.40;;;;;;;;;;5094749;28;20035;-65
2021/06/03 12:10:04;;;;;;;2.33;2.10;;;;;;;;;;5076468;28;20036;-66
2021/06/03 12:12:31;;;;;;;2.40;2.20;;;;;;;;;;5094544;28;20028;-66
2021/06/03 12:14:57;;;;;;;5.63;2.20;;;;;;;;;;5094564;28;20020;-65
2021/06/03 12:17:24;;;;;;;1.58;1.48;;;;;;;;;;5094485;28;20082;-65
2021/06/03 12:19:51;;;;;;;3.17;1.45;;;;;;;;;;5076410;28;20098;-65
2021/06/03 12:22:18;;;;;;;1.50;1.40;;;;;;;;;;5094375;28;20028;-65
2021/06/03 12:24:53;;;;;;;1.50;1.40;;;;;;;;;;5094325;28;20024;-65
2021/06/03 12:27:27;;;;;;;3.13;2.28;;;;;;;;;;5094281;28;20444;-66
2021/06/03 12:29:54;;;;;;;3.05;2.63;;;;;;;;;;5094340;28;20176;-66
2021/06/03 12:32:21;;;;;;;5.00;1.90;;;;;;;;;;5094090;28;20020;-65
2021/06/03 12:34:47;;;;;;;2.60;1.58;;;;;;;;;;5094234;28;20425;-66
2021/06/03 12:37:20;;;;;;;1.50;1.40;;;;;;;;;;5094245;28;20070;-66
2021/06/03 12:39:46;;;;;;;3.28;1.52;;;;;;;;;;5094206;28;20386;-66
2021/06/03 12:42:11;;;;;;;2.45;1.77;;;;;;;;;;5094012;28;20020;-66
2021/06/03 12:44:37;;;;;;;4.15;1.73;;;;;;;;;;5094063;28;20135;-66
2021/06/03 12:47:06;;;;;;;3.40;1.75;;;;;;;;;;5093955;28;20031;-66
2021/06/03 12:49:32;;;;;;;1.95;1.40;;;;;;;;;;5075752;28;20023;-66
2021/06/03 12:52:02;;;;;;;1.95;1.70;;;;;;;;;;5093839;28;20012;-66
2021/06/03 12:54:31;;;;;;;3.20;2.08;;;;;;;;;;5093857;28;20024;-66
2021/06/03 12:56:58;;;;;;;2.70;2.40;;;;;;;;;;5093780;28;20039;-66
2021/06/03 12:59:25;;;;;;;2.08;1.63;;;;;;;;;;5093760;28;20091;-66
2021/06/03 13:01:53;;;;;;;2.00;1.80;;;;;;;;;;5093815;28;20394;-65
2021/06/03 13:04:19;;;;;;;1.70;1.60;;;;;;;;;;5093817;28;20028;-66
2021/06/03 13:06:45;;;;;;;2.55;1.65;;;;;;;;;;5093712;28;20047;-66
2021/06/03 13:09:10;;;;;;;1.90;1.73;;;;;;;;;;5075642;28;20032;-66
2021/06/03 13:11:38;;;;;;;2.70;1.80;;;;;;;;;;5093385;28;20020;-66
2021/06/03 13:14:11;;;;;;;2.83;1.83;;;;;;;;;;5093621;28;20061;-66
2021/06/03 13:16:36;;;;;;;2.55;2.45;;;;;;;;;;5075280;28;20028;-66
2021/06/03 13:19:08;;;;;;;2.22;2.05;;;;;;;;;;5092794;28;20038;-66
2021/06/03 13:21:33;;;;;;;2.60;2.08;;;;;;;;;;5093270;28;20016;-66
2021/06/03 13:23:59;;;;;;;4.50;1.80;;;;;;;;;;5075309;28;20030;-66
2021/06/03 13:26:24;;;;;;;3.08;1.65;;;;;;;;;;5093351;28;20078;-66
2021/06/03 13:28:50;;;;;;;2.03;1.88;;;;;;;;;;5092935;28;20031;-66
2021/06/03 13:31:18;;;;;;;2.42;2.10;;;;;;;;;;5093258;28;20024;-66
2021/06/03 13:33:43;;;;;;;1.92;1.65;;;;;;;;;;5093211;28;20379;-66
2021/06/03 13:36:12;;;;;;;1.80;1.40;;;;;;;;;;5093234;28;20020;-66
2021/06/03 13:38:47;;;;;;;1.65;1.60;;;;;;;;;;5093240;28;20020;-66
2021/06/03 13:41:13;;;;;;;1.88;1.65;;;;;;;;;;5093143;28;20076;-66
2021/06/03 13:43:41;;;;;;;2.33;1.60;;;;;;;;;;5092719;28;20048;-66
2021/06/03 13:46:09;;;;;;;1.90;1.80;;;;;;;;;;5093172;28;20020;-66
2021/06/03 13:48:41;;;;;;;1.67;1.58;;;;;;;;;;5093020;28;20036;-66
2021/06/03 13:51:12;;;;;;;2.60;2.00;;;;;;;;;;5093011;28;20028;-66
2021/06/03 13:53:46;;;;;;;2.35;1.70;;;;;;;;;;5093138;28;20032;-66
2021/06/03 13:56:14;;;;;;;3.47;2.20;;;;;;;;;;5093188;28;20487;-66
2021/06/03 13:58:45;;;;;;;2.85;2.05;;;;;;;;;;5074919;28;20428;-66
2021/06/03 14:01:13;;;;;;;2.20;2.00;;;;;;;;;;5092933;28;20055;-66
2021/06/03 14:03:43;;;;;;;2.47;1.65;;;;;;;;;;5092874;28;20028;-66
2021/06/03 14:06:09;;;;;;;2.53;2.15;;;;;;;;;;5092877;28;20028;-66
2021/06/03 14:08:39;;;;;;;3.35;2.10;;;;;;;;;;5092978;28;20146;-66
2021/06/03 14:11:42;;;;;;;1.88;1.75;;;;;;;;;;5092756;28;20035;-66
2021/06/03 14:14:12;;;;;;;2.38;1.83;;;;;;;;;;5091908;28;20052;-66
2021/06/03 14:17:10;;;;;;;1.92;1.80;;;;;;;;;;5092736;28;20493;-66
2021/06/03 14:19:39;;;;;;;5.18;1.95;;;;;;;;;;5047588;28;20093;-66
2021/06/03 14:22:23;;;;;;;3.78;1.90;;;;;;;;;;5074660;28;20039;-66
2021/06/03 14:24:55;;;;;;;3.22;1.50;;;;;;;;;;5092772;28;20466;-66
2021/06/03 14:27:38;;;;;;;2.35;1.63;;;;;;;;;;5092724;28;20078;-66
2021/06/03 14:30:08;;;;;;;1.80;1.70;;;;;;;;;;5074697;28;20086;-66
2021/06/03 14:32:35;;;;;;;1.83;1.73;;;;;;;;;;5092583;28;20476;-66
2021/06/03 14:35:27;;;;;;;5.43;2.05;;;;;;;;;;5092607;28;20021;-66
2021/06/03 14:38:03;;;;;;;2.38;1.90;;;;;;;;;;5088662;28;20032;-66
2021/06/03 14:40:30;;;;;;;3.72;1.67;;;;;;;;;;5093863;28;20478;-66
2021/06/03 14:43:14;;;;;;;1.60;1.50;;;;;;;;;;5096001;28;20097;-66
2021/06/03 14:45:47;;;;;;;3.90;1.70;;;;;;;;;;5096325;28;20024;-66
2021/06/03 14:48:14;;;;;;;1.92;1.60;;;;;;;;;;5096389;28;20110;-66
2021/06/03 14:50:40;;;;;;;1.77;1.67;;;;;;;;;;5096268;28;20024;-66